sensor_id;sensor_type;location;lat;lon;timestamp;temperature;humidity
70214;DHT22;60138;55.808;37.078;2024-02-21T00:02:12;-8.41;77.23
70214;DHT22;60138;55.808;37.078;2024-02-21T00:04:38;-8.42;77.21
70214;DHT22;60138;55.808;37.078;2024-02-21T00:07:04;-8.44;77.24
70214;DHT22;60138;55.808;37.078;2024-02-21T00:09:29;-8.46;77.20
70214;DHT22;60138;55.808;37.078;2024-02-21T00:11:55;-8.51;77.15
70214;DHT22;60138;55.808;37.078;2024-02-21T00:14:21;-8.54;77.14
70214;DHT22;60138;55.808;37.078;2024-02-21T00:16:46;-8.59;77.05
70214;DHT22;60138;55.808;37.078;2024-02-21T00:19:12;-8.65;77.04
70214;DHT22;60138;55.808;37.078;2024-02-21T00:21:38;-8.70;77.02
70214;DHT22;60138;55.808;37.078;2024-02-21T00:24:04;-8.75;76.99
70214;DHT22;60138;55.808;37.078;2024-02-21T00:26:29;-8.80;76.95
70214;DHT22;60138;55.808;37.078;2024-02-21T00:28:55;-8.84;76.95
70214;DHT22;60138;55.808;37.078;2024-02-21T00:31:21;-8.88;76.92
70214;DHT22;60138;55.808;37.078;2024-02-21T00:33:46;-8.92;77.00
70214;DHT22;60138;55.808;37.078;2024-02-21T00:36:12;-8.90;77.10
70214;DHT22;60138;55.808;37.078;2024-02-21T00:38:38;-8.89;77.08
70214;DHT22;60138;55.808;37.078;2024-02-21T00:41:04;-8.89;77.05
70214;DHT22;60138;55.808;37.078;2024-02-21T00:43:29;-8.87;77.13
70214;DHT22;60138;55.808;37.078;2024-02-21T00:45:55;-8.84;77.21
70214;DHT22;60138;55.808;37.078;2024-02-21T00:48:21;-8.79;77.27
70214;DHT22;60138;55.808;37.078;2024-02-21T00:50:46;-8.75;77.32
70214;DHT22;60138;55.808;37.078;2024-02-21T00:53:12;-8.69;77.35
70214;DHT22;60138;55.808;37.078;2024-02-21T00:55:38;-8.67;77.35
70214;DHT22;60138;55.808;37.078;2024-02-21T00:58:03;-8.66;77.34
70214;DHT22;60138;55.808;37.078;2024-02-21T01:00:30;-8.69;77.29
70214;DHT22;60138;55.808;37.078;2024-02-21T01:02:55;-8.67;77.34
70214;DHT22;60138;55.808;37.078;2024-02-21T01:05:21;-8.63;77.43
70214;DHT22;60138;55.808;37.078;2024-02-21T01:07:47;-8.53;77.52
70214;DHT22;60138;55.808;37.078;2024-02-21T01:10:12;-8.43;77.58
70214;DHT22;60138;55.808;37.078;2024-02-21T01:12:38;-8.31;77.62
70214;DHT22;60138;55.808;37.078;2024-02-21T01:15:04;-8.24;77.61
70214;DHT22;60138;55.808;37.078;2024-02-21T01:17:30;-8.15;77.57
70214;DHT22;60138;55.808;37.078;2024-02-21T01:19:56;-8.08;77.53
70214;DHT22;60138;55.808;37.078;2024-02-21T01:22:21;-8.00;77.36
70214;DHT22;60138;55.808;37.078;2024-02-21T01:24:47;-7.92;77.37
70214;DHT22;60138;55.808;37.078;2024-02-21T01:27:13;-7.85;77.32
70214;DHT22;60138;55.808;37.078;2024-02-21T01:29:39;-7.80;77.27
70214;DHT22;60138;55.808;37.078;2024-02-21T01:32:05;-7.74;77.22
70214;DHT22;60138;55.808;37.078;2024-02-21T01:34:30;-7.66;77.29
70214;DHT22;60138;55.808;37.078;2024-02-21T01:36:56;-7.59;77.25
70214;DHT22;60138;55.808;37.078;2024-02-21T01:39:22;-7.53;77.23
70214;DHT22;60138;55.808;37.078;2024-02-21T01:41:47;-7.49;77.00
70214;DHT22;60138;55.808;37.078;2024-02-21T01:44:13;-7.45;76.87
70214;DHT22;60138;55.808;37.078;2024-02-21T01:46:39;-7.40;76.88
70214;DHT22;60138;55.808;37.078;2024-02-21T01:49:05;-7.38;76.97
70214;DHT22;60138;55.808;37.078;2024-02-21T01:51:31;-7.34;76.95
70214;DHT22;60138;55.808;37.078;2024-02-21T01:53:57;-7.33;76.92
70214;DHT22;60138;55.808;37.078;2024-02-21T01:56:24;-7.31;76.81
70214;DHT22;60138;55.808;37.078;2024-02-21T01:58:51;-7.29;76.67
70214;DHT22;60138;55.808;37.078;2024-02-21T02:01:17;-7.25;76.72
70214;DHT22;60138;55.808;37.078;2024-02-21T02:03:45;-7.24;76.73
70214;DHT22;60138;55.808;37.078;2024-02-21T02:06:11;-7.18;76.74
70214;DHT22;60138;55.808;37.078;2024-02-21T02:08:37;-7.15;76.77
70214;DHT22;60138;55.808;37.078;2024-02-21T02:11:03;-7.11;76.72
70214;DHT22;60138;55.808;37.078;2024-02-21T02:13:29;-7.08;76.69
70214;DHT22;60138;55.808;37.078;2024-02-21T02:15:54;-7.06;76.73
70214;DHT22;60138;55.808;37.078;2024-02-21T02:18:20;-7.01;76.73
70214;DHT22;60138;55.808;37.078;2024-02-21T02:20:47;-7.01;76.16
70214;DHT22;60138;55.808;37.078;2024-02-21T02:23:28;-6.97;76.30
70214;DHT22;60138;55.808;37.078;2024-02-21T02:25:55;-6.94;76.31
70214;DHT22;60138;55.808;37.078;2024-02-21T02:28:21;-6.91;76.44
70214;DHT22;60138;55.808;37.078;2024-02-21T02:30:47;-6.88;76.44
70214;DHT22;60138;55.808;37.078;2024-02-21T02:33:13;-6.87;76.56
70214;DHT22;60138;55.808;37.078;2024-02-21T02:35:39;-6.85;76.44
70214;DHT22;60138;55.808;37.078;2024-02-21T02:38:05;-6.82;76.47
70214;DHT22;60138;55.808;37.078;2024-02-21T02:40:32;-6.80;76.37
70214;DHT22;60138;55.808;37.078;2024-02-21T02:42:58;-6.78;76.39
70214;DHT22;60138;55.808;37.078;2024-02-21T02:45:24;-6.75;76.43
70214;DHT22;60138;55.808;37.078;2024-02-21T02:47:50;-6.73;76.24
70214;DHT22;60138;55.808;37.078;2024-02-21T02:50:16;-6.71;76.28
70214;DHT22;60138;55.808;37.078;2024-02-21T02:52:41;-6.70;76.43
70214;DHT22;60138;55.808;37.078;2024-02-21T02:55:07;-6.66;76.43
70214;DHT22;60138;55.808;37.078;2024-02-21T02:57:33;-6.64;76.47
70214;DHT22;60138;55.808;37.078;2024-02-21T02:59:59;-6.61;76.53
70214;DHT22;60138;55.808;37.078;2024-02-21T03:02:25;-6.58;76.31
70214;DHT22;60138;55.808;37.078;2024-02-21T03:04:50;-6.51;76.52
70214;DHT22;60138;55.808;37.078;2024-02-21T03:07:16;-6.49;76.45
70214;DHT22;60138;55.808;37.078;2024-02-21T03:09:42;-6.46;76.49
70214;DHT22;60138;55.808;37.078;2024-02-21T03:12:08;-6.44;76.49
70214;DHT22;60138;55.808;37.078;2024-02-21T03:14:35;-6.42;76.43
70214;DHT22;60138;55.808;37.078;2024-02-21T03:17:01;-6.38;76.53
70214;DHT22;60138;55.808;37.078;2024-02-21T03:19:28;-6.35;76.37
70214;DHT22;60138;55.808;37.078;2024-02-21T03:21:54;-6.35;76.36
70214;DHT22;60138;55.808;37.078;2024-02-21T03:24:20;-6.31;76.30
70214;DHT22;60138;55.808;37.078;2024-02-21T03:26:46;-6.29;76.41
70214;DHT22;60138;55.808;37.078;2024-02-21T03:29:13;-6.28;76.50
70214;DHT22;60138;55.808;37.078;2024-02-21T03:31:39;-6.26;76.41
70214;DHT22;60138;55.808;37.078;2024-02-21T03:34:05;-6.23;76.34
70214;DHT22;60138;55.808;37.078;2024-02-21T03:36:31;-6.23;76.20
70214;DHT22;60138;55.808;37.078;2024-02-21T03:38:56;-6.23;76.45
70214;DHT22;60138;55.808;37.078;2024-02-21T03:41:22;-6.19;76.50
70214;DHT22;60138;55.808;37.078;2024-02-21T03:43:48;-6.18;76.57
70214;DHT22;60138;55.808;37.078;2024-02-21T03:46:14;-6.15;76.48
70214;DHT22;60138;55.808;37.078;2024-02-21T03:48:40;-6.12;76.51
70214;DHT22;60138;55.808;37.078;2024-02-21T03:51:06;-6.11;76.24
70214;DHT22;60138;55.808;37.078;2024-02-21T03:53:31;-6.09;76.44
70214;DHT22;60138;55.808;37.078;2024-02-21T03:55:57;-6.06;76.38
70214;DHT22;60138;55.808;37.078;2024-02-21T03:58:23;-6.05;76.32
70214;DHT22;60138;55.808;37.078;2024-02-21T04:00:51;-6.03;76.50
70214;DHT22;60138;55.808;37.078;2024-02-21T04:03:17;-6.01;76.36
70214;DHT22;60138;55.808;37.078;2024-02-21T04:05:42;-5.98;76.51
70214;DHT22;60138;55.808;37.078;2024-02-21T04:08:08;-5.96;76.44
70214;DHT22;60138;55.808;37.078;2024-02-21T04:10:34;-5.93;76.58
70214;DHT22;60138;55.808;37.078;2024-02-21T04:13:00;-5.91;76.33
70214;DHT22;60138;55.808;37.078;2024-02-21T04:15:25;-5.90;76.45
70214;DHT22;60138;55.808;37.078;2024-02-21T04:17:51;-5.90;76.44
70214;DHT22;60138;55.808;37.078;2024-02-21T04:20:17;-5.87;76.53
70214;DHT22;60138;55.808;37.078;2024-02-21T04:22:43;-5.85;76.39
70214;DHT22;60138;55.808;37.078;2024-02-21T04:25:09;-5.82;76.58
70214;DHT22;60138;55.808;37.078;2024-02-21T04:27:34;-5.81;76.46
70214;DHT22;60138;55.808;37.078;2024-02-21T04:30:00;-5.79;76.41
70214;DHT22;60138;55.808;37.078;2024-02-21T04:32:26;-5.77;76.32
70214;DHT22;60138;55.808;37.078;2024-02-21T04:34:52;-5.73;76.46
70214;DHT22;60138;55.808;37.078;2024-02-21T04:37:17;-5.73;76.53
70214;DHT22;60138;55.808;37.078;2024-02-21T04:39:43;-5.72;76.57
70214;DHT22;60138;55.808;37.078;2024-02-21T04:42:09;-5.70;76.60
70214;DHT22;60138;55.808;37.078;2024-02-21T04:44:34;-5.68;76.56
70214;DHT22;60138;55.808;37.078;2024-02-21T04:47:00;-5.65;76.58
70214;DHT22;60138;55.808;37.078;2024-02-21T04:49:26;-5.64;76.52
70214;DHT22;60138;55.808;37.078;2024-02-21T04:51:52;-5.62;76.30
70214;DHT22;60138;55.808;37.078;2024-02-21T04:54:17;-5.61;76.40
70214;DHT22;60138;55.808;37.078;2024-02-21T04:56:43;-5.59;76.30
70214;DHT22;60138;55.808;37.078;2024-02-21T04:59:09;-5.57;76.28
70214;DHT22;60138;55.808;37.078;2024-02-21T05:01:35;-5.54;76.34
70214;DHT22;60138;55.808;37.078;2024-02-21T05:04:00;-5.50;76.38
70214;DHT22;60138;55.808;37.078;2024-02-21T05:06:26;-5.50;76.31
70214;DHT22;60138;55.808;37.078;2024-02-21T05:08:52;-5.48;76.22
70214;DHT22;60138;55.808;37.078;2024-02-21T05:11:17;-5.43;76.29
70214;DHT22;60138;55.808;37.078;2024-02-21T05:13:43;-5.40;76.21
70214;DHT22;60138;55.808;37.078;2024-02-21T05:16:09;-5.38;76.08
70214;DHT22;60138;55.808;37.078;2024-02-21T05:18:34;-5.33;76.31
70214;DHT22;60138;55.808;37.078;2024-02-21T05:21:01;-5.30;76.25
70214;DHT22;60138;55.808;37.078;2024-02-21T05:23:26;-5.26;76.47
70214;DHT22;60138;55.808;37.078;2024-02-21T05:25:52;-5.24;76.59
70214;DHT22;60138;55.808;37.078;2024-02-21T05:28:18;-5.19;76.59
70214;DHT22;60138;55.808;37.078;2024-02-21T05:30:43;-5.14;76.53
70214;DHT22;60138;55.808;37.078;2024-02-21T05:33:09;-5.13;76.59
70214;DHT22;60138;55.808;37.078;2024-02-21T05:35:35;-5.07;76.37
70214;DHT22;60138;55.808;37.078;2024-02-21T05:38:01;-5.03;76.37
70214;DHT22;60138;55.808;37.078;2024-02-21T05:40:27;-4.98;76.42
70214;DHT22;60138;55.808;37.078;2024-02-21T05:42:52;-4.93;76.34
70214;DHT22;60138;55.808;37.078;2024-02-21T05:45:18;-4.89;76.37
70214;DHT22;60138;55.808;37.078;2024-02-21T05:47:44;-4.86;75.84
70214;DHT22;60138;55.808;37.078;2024-02-21T05:50:10;-4.80;76.05
70214;DHT22;60138;55.808;37.078;2024-02-21T05:52:36;-4.76;76.15
70214;DHT22;60138;55.808;37.078;2024-02-21T05:55:01;-4.70;76.08
70214;DHT22;60138;55.808;37.078;2024-02-21T05:57:27;-4.66;76.10
70214;DHT22;60138;55.808;37.078;2024-02-21T05:59:53;-4.59;76.11
70214;DHT22;60138;55.808;37.078;2024-02-21T06:02:19;-4.53;76.05
70214;DHT22;60138;55.808;37.078;2024-02-21T06:04:44;-4.49;75.87
70214;DHT22;60138;55.808;37.078;2024-02-21T06:07:10;-4.44;75.40
70214;DHT22;60138;55.808;37.078;2024-02-21T06:09:36;-4.39;75.66
70214;DHT22;60138;55.808;37.078;2024-02-21T06:12:01;-4.34;75.61
70214;DHT22;60138;55.808;37.078;2024-02-21T06:14:27;-4.28;75.76
70214;DHT22;60138;55.808;37.078;2024-02-21T06:16:53;-4.22;75.90
70214;DHT22;60138;55.808;37.078;2024-02-21T06:19:19;-4.13;75.70
70214;DHT22;60138;55.808;37.078;2024-02-21T06:21:44;-4.07;75.76
70214;DHT22;60138;55.808;37.078;2024-02-21T06:24:10;-4.00;75.39
70214;DHT22;60138;55.808;37.078;2024-02-21T06:26:36;-3.95;75.63
70214;DHT22;60138;55.808;37.078;2024-02-21T06:29:01;-3.87;75.69
70214;DHT22;60138;55.808;37.078;2024-02-21T06:31:27;-3.80;75.66
70214;DHT22;60138;55.808;37.078;2024-02-21T06:33:53;-3.76;75.74
70214;DHT22;60138;55.808;37.078;2024-02-21T06:36:19;-3.69;75.53
70214;DHT22;60138;55.808;37.078;2024-02-21T06:38:45;-3.65;74.16
70214;DHT22;60138;55.808;37.078;2024-02-21T06:41:17;-3.58;74.78
70214;DHT22;60138;55.808;37.078;2024-02-21T06:43:44;-3.50;75.06
70214;DHT22;60138;55.808;37.078;2024-02-21T06:46:10;-3.43;74.72
70214;DHT22;60138;55.808;37.078;2024-02-21T06:48:36;-3.36;75.27
70214;DHT22;60138;55.808;37.078;2024-02-21T06:51:02;-3.31;74.97
70214;DHT22;60138;55.808;37.078;2024-02-21T06:53:27;-3.27;74.37
70214;DHT22;60138;55.808;37.078;2024-02-21T06:55:53;-3.28;74.96
70214;DHT22;60138;55.808;37.078;2024-02-21T06:58:19;-3.27;74.86
70214;DHT22;60138;55.808;37.078;2024-02-21T07:00:45;-3.24;74.66
70214;DHT22;60138;55.808;37.078;2024-02-21T07:03:10;-3.22;74.86
70214;DHT22;60138;55.808;37.078;2024-02-21T07:05:36;-3.17;74.64
70214;DHT22;60138;55.808;37.078;2024-02-21T07:08:02;-3.11;75.16
70214;DHT22;60138;55.808;37.078;2024-02-21T07:10:28;-3.04;74.90
70214;DHT22;60138;55.808;37.078;2024-02-21T07:12:53;-3.00;74.28
70214;DHT22;60138;55.808;37.078;2024-02-21T07:15:19;-2.96;74.46
70214;DHT22;60138;55.808;37.078;2024-02-21T07:17:45;-2.95;74.20
70214;DHT22;60138;55.808;37.078;2024-02-21T07:20:11;-2.88;74.81
70214;DHT22;60138;55.808;37.078;2024-02-21T07:22:36;-2.88;75.09
70214;DHT22;60138;55.808;37.078;2024-02-21T07:25:02;-2.95;75.03
70214;DHT22;60138;55.808;37.078;2024-02-21T07:27:29;-3.02;74.80
70214;DHT22;60138;55.808;37.078;2024-02-21T07:29:55;-3.10;74.80
70214;DHT22;60138;55.808;37.078;2024-02-21T07:32:20;-3.13;75.06
70214;DHT22;60138;55.808;37.078;2024-02-21T07:34:46;-3.17;73.23
70214;DHT22;60138;55.808;37.078;2024-02-21T07:37:12;-3.19;74.30
70214;DHT22;60138;55.808;37.078;2024-02-21T07:39:38;-3.24;74.80
70214;DHT22;60138;55.808;37.078;2024-02-21T07:42:04;-3.30;74.61
70214;DHT22;60138;55.808;37.078;2024-02-21T07:44:31;-3.41;74.67
70214;DHT22;60138;55.808;37.078;2024-02-21T07:46:57;-3.50;73.38
70214;DHT22;60138;55.808;37.078;2024-02-21T07:49:24;-3.60;73.38
70214;DHT22;60138;55.808;37.078;2024-02-21T07:51:50;-3.65;73.43
70214;DHT22;60138;55.808;37.078;2024-02-21T07:54:16;-3.67;73.95
70214;DHT22;60138;55.808;37.078;2024-02-21T07:56:41;-3.70;73.47
70214;DHT22;60138;55.808;37.078;2024-02-21T07:59:07;-3.72;74.02
70214;DHT22;60138;55.808;37.078;2024-02-21T08:01:33;-3.72;74.29
70214;DHT22;60138;55.808;37.078;2024-02-21T08:03:59;-3.74;74.05
70214;DHT22;60138;55.808;37.078;2024-02-21T08:06:24;-3.74;73.81
70214;DHT22;60138;55.808;37.078;2024-02-21T08:08:50;-3.69;74.33
70214;DHT22;60138;55.808;37.078;2024-02-21T08:11:16;-3.64;74.56
70214;DHT22;60138;55.808;37.078;2024-02-21T08:13:41;-3.55;74.88
70214;DHT22;60138;55.808;37.078;2024-02-21T08:16:07;-3.49;74.98
70214;DHT22;60138;55.808;37.078;2024-02-21T08:18:33;-3.39;75.00
70214;DHT22;60138;55.808;37.078;2024-02-21T08:20:59;-3.23;74.44
70214;DHT22;60138;55.808;37.078;2024-02-21T08:23:24;-3.05;74.41
70214;DHT22;60138;55.808;37.078;2024-02-21T08:25:50;-2.80;74.34
70214;DHT22;60138;55.808;37.078;2024-02-21T08:28:15;-2.53;74.03
70214;DHT22;60138;55.808;37.078;2024-02-21T08:30:42;-2.26;74.59
70214;DHT22;60138;55.808;37.078;2024-02-21T08:33:07;-1.99;74.44
70214;DHT22;60138;55.808;37.078;2024-02-21T08:35:33;-1.80;73.16
70214;DHT22;60138;55.808;37.078;2024-02-21T08:37:59;-1.61;73.49
70214;DHT22;60138;55.808;37.078;2024-02-21T08:40:25;-1.40;73.99
70214;DHT22;60138;55.808;37.078;2024-02-21T08:42:50;-1.20;73.84
70214;DHT22;60138;55.808;37.078;2024-02-21T08:45:16;-1.10;72.90
70214;DHT22;60138;55.808;37.078;2024-02-21T08:47:42;-0.96;72.68
70214;DHT22;60138;55.808;37.078;2024-02-21T08:50:08;-0.83;72.29
70214;DHT22;60138;55.808;37.078;2024-02-21T08:52:34;-0.69;73.08
70214;DHT22;60138;55.808;37.078;2024-02-21T08:55:00;-0.61;72.40
70214;DHT22;60138;55.808;37.078;2024-02-21T08:57:27;-0.55;71.89
70214;DHT22;60138;55.808;37.078;2024-02-21T08:59:53;-0.52;72.42
70214;DHT22;60138;55.808;37.078;2024-02-21T09:02:18;-0.45;72.11
70214;DHT22;60138;55.808;37.078;2024-02-21T09:04:44;-0.37;72.17
70214;DHT22;60138;55.808;37.078;2024-02-21T09:07:10;-0.35;72.96
70214;DHT22;60138;55.808;37.078;2024-02-21T09:09:36;-0.32;72.97
70214;DHT22;60138;55.808;37.078;2024-02-21T09:12:02;-0.23;72.40
70214;DHT22;60138;55.808;37.078;2024-02-21T09:14:28;-0.17;72.48
70214;DHT22;60138;55.808;37.078;2024-02-21T09:16:54;-0.13;73.00
70214;DHT22;60138;55.808;37.078;2024-02-21T09:19:20;-0.08;72.55
70214;DHT22;60138;55.808;37.078;2024-02-21T09:21:45;-0.05;73.28
70214;DHT22;60138;55.808;37.078;2024-02-21T09:24:11;-0.00;72.72
70214;DHT22;60138;55.808;37.078;2024-02-21T09:26:37;0.07;71.42
70214;DHT22;60138;55.808;37.078;2024-02-21T09:29:02;0.09;71.07
70214;DHT22;60138;55.808;37.078;2024-02-21T09:31:28;0.15;71.51
70214;DHT22;60138;55.808;37.078;2024-02-21T09:33:54;0.18;71.28
70214;DHT22;60138;55.808;37.078;2024-02-21T09:36:19;0.20;72.64
70214;DHT22;60138;55.808;37.078;2024-02-21T09:38:45;0.24;72.06
70214;DHT22;60138;55.808;37.078;2024-02-21T09:41:18;0.23;73.38
70214;DHT22;60138;55.808;37.078;2024-02-21T09:43:50;0.21;71.82
70214;DHT22;60138;55.808;37.078;2024-02-21T09:46:17;0.19;72.13
70214;DHT22;60138;55.808;37.078;2024-02-21T09:49:52;0.19;71.61
70214;DHT22;60138;55.808;37.078;2024-02-21T09:51:53;0.21;72.34
70214;DHT22;60138;55.808;37.078;2024-02-21T09:54:21;0.20;71.79
70214;DHT22;60138;55.808;37.078;2024-02-21T09:56:47;0.21;72.86
70214;DHT22;60138;55.808;37.078;2024-02-21T09:59:17;0.21;71.74
70214;DHT22;60138;55.808;37.078;2024-02-21T10:01:45;0.21;70.13
70214;DHT22;60138;55.808;37.078;2024-02-21T10:04:10;0.21;72.45
70214;DHT22;60138;55.808;37.078;2024-02-21T10:06:36;0.21;71.98
70214;DHT22;60138;55.808;37.078;2024-02-21T10:09:02;0.21;71.65
70214;DHT22;60138;55.808;37.078;2024-02-21T10:11:28;0.22;70.03
70214;DHT22;60138;55.808;37.078;2024-02-21T10:14:07;0.24;71.85
70214;DHT22;60138;55.808;37.078;2024-02-21T10:16:33;0.20;71.38
70214;DHT22;60138;55.808;37.078;2024-02-21T10:18:59;0.16;72.06
70214;DHT22;60138;55.808;37.078;2024-02-21T10:21:25;0.07;72.41
70214;DHT22;60138;55.808;37.078;2024-02-21T10:23:51;0.05;72.80
70214;DHT22;60138;55.808;37.078;2024-02-21T10:26:19;0.02;72.19
70214;DHT22;60138;55.808;37.078;2024-02-21T10:28:45;-0.07;72.90
70214;DHT22;60138;55.808;37.078;2024-02-21T10:31:11;-0.06;71.95
70214;DHT22;60138;55.808;37.078;2024-02-21T10:33:56;-0.06;71.50
70214;DHT22;60138;55.808;37.078;2024-02-21T10:36:23;-0.05;71.85
70214;DHT22;60138;55.808;37.078;2024-02-21T10:38:49;-0.03;72.07
70214;DHT22;60138;55.808;37.078;2024-02-21T10:41:15;-0.01;72.90
70214;DHT22;60138;55.808;37.078;2024-02-21T10:43:41;-0.01;73.02
70214;DHT22;60138;55.808;37.078;2024-02-21T10:46:07;-0.03;72.45
70214;DHT22;60138;55.808;37.078;2024-02-21T10:48:42;-0.09;72.68
70214;DHT22;60138;55.808;37.078;2024-02-21T10:51:18;-0.11;73.19
70214;DHT22;60138;55.808;37.078;2024-02-21T10:56:29;-0.16;72.77
70214;DHT22;60138;55.808;37.078;2024-02-21T10:58:57;-0.21;72.19
70214;DHT22;60138;55.808;37.078;2024-02-21T11:01:24;-0.21;72.80
70214;DHT22;60138;55.808;37.078;2024-02-21T11:03:54;-0.17;73.28
70214;DHT22;60138;55.808;37.078;2024-02-21T11:06:21;-0.15;73.38
70214;DHT22;60138;55.808;37.078;2024-02-21T11:08:47;-0.21;73.94
70214;DHT22;60138;55.808;37.078;2024-02-21T11:11:13;-0.25;72.70
70214;DHT22;60138;55.808;37.078;2024-02-21T11:13:40;-0.34;74.12
70214;DHT22;60138;55.808;37.078;2024-02-21T11:16:08;-0.36;72.87
70214;DHT22;60138;55.808;37.078;2024-02-21T11:18:33;-0.38;73.78
70214;DHT22;60138;55.808;37.078;2024-02-21T11:20:59;-0.41;73.56
70214;DHT22;60138;55.808;37.078;2024-02-21T11:23:29;-0.41;73.16
70214;DHT22;60138;55.808;37.078;2024-02-21T11:26:10;-0.42;74.24
70214;DHT22;60138;55.808;37.078;2024-02-21T11:28:43;-0.43;74.56
70214;DHT22;60138;55.808;37.078;2024-02-21T11:31:13;-0.45;74.19
70214;DHT22;60138;55.808;37.078;2024-02-21T11:33:42;-0.50;73.38
70214;DHT22;60138;55.808;37.078;2024-02-21T11:36:11;-0.53;73.91
70214;DHT22;60138;55.808;37.078;2024-02-21T11:38:48;-0.57;73.38
70214;DHT22;60138;55.808;37.078;2024-02-21T11:41:13;-0.56;73.71
70214;DHT22;60138;55.808;37.078;2024-02-21T11:43:39;-0.55;72.78
70214;DHT22;60138;55.808;37.078;2024-02-21T11:46:05;-0.57;73.48
70214;DHT22;60138;55.808;37.078;2024-02-21T11:48:31;-0.56;73.33
70214;DHT22;60138;55.808;37.078;2024-02-21T11:50:57;-0.59;73.32
70214;DHT22;60138;55.808;37.078;2024-02-21T11:53:23;-0.62;73.35
70214;DHT22;60138;55.808;37.078;2024-02-21T11:55:49;-0.64;73.35
70214;DHT22;60138;55.808;37.078;2024-02-21T11:58:16;-0.65;72.94
70214;DHT22;60138;55.808;37.078;2024-02-21T12:00:41;-0.61;73.41
70214;DHT22;60138;55.808;37.078;2024-02-21T12:03:07;-0.60;73.37
70214;DHT22;60138;55.808;37.078;2024-02-21T12:05:33;-0.64;73.54
70214;DHT22;60138;55.808;37.078;2024-02-21T12:08:00;-0.68;72.38
70214;DHT22;60138;55.808;37.078;2024-02-21T12:10:26;-0.66;72.91
70214;DHT22;60138;55.808;37.078;2024-02-21T12:12:52;-0.61;73.05
70214;DHT22;60138;55.808;37.078;2024-02-21T12:15:18;-0.61;73.12
70214;DHT22;60138;55.808;37.078;2024-02-21T12:17:44;-0.64;72.70
70214;DHT22;60138;55.808;37.078;2024-02-21T12:20:10;-0.64;73.32
70214;DHT22;60138;55.808;37.078;2024-02-21T12:22:36;-0.65;73.25
70214;DHT22;60138;55.808;37.078;2024-02-21T12:25:15;-0.66;73.05
70214;DHT22;60138;55.808;37.078;2024-02-21T12:27:41;-0.68;73.35
70214;DHT22;60138;55.808;37.078;2024-02-21T12:30:07;-0.70;72.54
70214;DHT22;60138;55.808;37.078;2024-02-21T12:32:33;-0.72;73.54
70214;DHT22;60138;55.808;37.078;2024-02-21T12:34:59;-0.71;73.12
70214;DHT22;60138;55.808;37.078;2024-02-21T12:37:25;-0.73;72.32
70214;DHT22;60138;55.808;37.078;2024-02-21T12:39:50;-0.71;73.39
70214;DHT22;60138;55.808;37.078;2024-02-21T12:42:16;-0.74;73.44
70214;DHT22;60138;55.808;37.078;2024-02-21T12:44:42;-0.73;72.77
70214;DHT22;60138;55.808;37.078;2024-02-21T12:47:08;-0.76;73.04
70214;DHT22;60138;55.808;37.078;2024-02-21T12:49:34;-0.75;73.05
70214;DHT22;60138;55.808;37.078;2024-02-21T12:52:00;-0.76;73.56
70214;DHT22;60138;55.808;37.078;2024-02-21T12:54:25;-0.75;72.74
70214;DHT22;60138;55.808;37.078;2024-02-21T12:56:51;-0.79;73.37
70214;DHT22;60138;55.808;37.078;2024-02-21T12:59:17;-0.80;72.90
70214;DHT22;60138;55.808;37.078;2024-02-21T13:01:43;-0.84;71.30
70214;DHT22;60138;55.808;37.078;2024-02-21T13:04:08;-0.86;72.41
70214;DHT22;60138;55.808;37.078;2024-02-21T13:06:34;-0.90;73.40
70214;DHT22;60138;55.808;37.078;2024-02-21T13:09:00;-0.93;72.98
70214;DHT22;60138;55.808;37.078;2024-02-21T13:11:26;-0.91;73.54
70214;DHT22;60138;55.808;37.078;2024-02-21T13:13:51;-0.95;72.82
70214;DHT22;60138;55.808;37.078;2024-02-21T13:16:17;-0.97;72.73
70214;DHT22;60138;55.808;37.078;2024-02-21T13:18:43;-1.03;71.50
70214;DHT22;60138;55.808;37.078;2024-02-21T13:21:09;-1.04;72.87
70214;DHT22;60138;55.808;37.078;2024-02-21T13:23:34;-1.05;73.24
70214;DHT22;60138;55.808;37.078;2024-02-21T13:26:00;-1.06;73.73
70214;DHT22;60138;55.808;37.078;2024-02-21T13:28:26;-1.10;73.61
70214;DHT22;60138;55.808;37.078;2024-02-21T13:30:52;-1.12;73.46
70214;DHT22;60138;55.808;37.078;2024-02-21T13:33:17;-1.15;72.90
70214;DHT22;60138;55.808;37.078;2024-02-21T13:35:43;-1.14;73.37
70214;DHT22;60138;55.808;37.078;2024-02-21T13:38:09;-1.15;73.77
70214;DHT22;60138;55.808;37.078;2024-02-21T13:40:35;-1.19;73.88
70214;DHT22;60138;55.808;37.078;2024-02-21T13:43:00;-1.24;73.65
70214;DHT22;60138;55.808;37.078;2024-02-21T13:45:26;-1.25;74.02
70214;DHT22;60138;55.808;37.078;2024-02-21T13:47:52;-1.26;73.97
70214;DHT22;60138;55.808;37.078;2024-02-21T13:50:18;-1.28;73.28
70214;DHT22;60138;55.808;37.078;2024-02-21T13:52:44;-1.29;73.98
70214;DHT22;60138;55.808;37.078;2024-02-21T13:55:09;-1.29;74.01
70214;DHT22;60138;55.808;37.078;2024-02-21T13:57:36;-1.30;74.13
70214;DHT22;60138;55.808;37.078;2024-02-21T14:00:07;-1.31;74.18
70214;DHT22;60138;55.808;37.078;2024-02-21T14:02:39;-1.34;74.37
70214;DHT22;60138;55.808;37.078;2024-02-21T14:05:05;-1.39;74.72
70214;DHT22;60138;55.808;37.078;2024-02-21T14:07:31;-1.42;74.67
70214;DHT22;60138;55.808;37.078;2024-02-21T14:09:57;-1.46;74.92
70214;DHT22;60138;55.808;37.078;2024-02-21T14:12:23;-1.50;74.81
70214;DHT22;60138;55.808;37.078;2024-02-21T14:14:48;-1.52;75.00
70214;DHT22;60138;55.808;37.078;2024-02-21T14:17:14;-1.57;74.96
70214;DHT22;60138;55.808;37.078;2024-02-21T14:19:40;-1.58;74.77
70214;DHT22;60138;55.808;37.078;2024-02-21T14:22:06;-1.60;74.85
70214;DHT22;60138;55.808;37.078;2024-02-21T14:24:31;-1.63;74.37
70214;DHT22;60138;55.808;37.078;2024-02-21T14:26:57;-1.68;74.77
70214;DHT22;60138;55.808;37.078;2024-02-21T14:29:23;-1.70;74.95
70214;DHT22;60138;55.808;37.078;2024-02-21T14:31:48;-1.72;74.89
70214;DHT22;60138;55.808;37.078;2024-02-21T14:34:14;-1.70;74.86
70214;DHT22;60138;55.808;37.078;2024-02-21T14:36:40;-1.71;74.60
70214;DHT22;60138;55.808;37.078;2024-02-21T14:39:06;-1.73;74.92
70214;DHT22;60138;55.808;37.078;2024-02-21T14:41:31;-1.74;74.86
70214;DHT22;60138;55.808;37.078;2024-02-21T14:43:57;-1.75;74.93
70214;DHT22;60138;55.808;37.078;2024-02-21T14:46:23;-1.74;75.12
70214;DHT22;60138;55.808;37.078;2024-02-21T14:48:49;-1.77;74.84
70214;DHT22;60138;55.808;37.078;2024-02-21T14:51:14;-1.82;75.02
70214;DHT22;60138;55.808;37.078;2024-02-21T14:53:40;-1.80;75.33
70214;DHT22;60138;55.808;37.078;2024-02-21T14:56:12;-1.83;75.21
70214;DHT22;60138;55.808;37.078;2024-02-21T14:58:38;-1.85;74.83
70214;DHT22;60138;55.808;37.078;2024-02-21T15:01:04;-1.86;74.77
70214;DHT22;60138;55.808;37.078;2024-02-21T15:03:30;-1.86;74.95
70214;DHT22;60138;55.808;37.078;2024-02-21T15:05:55;-1.89;75.04
70214;DHT22;60138;55.808;37.078;2024-02-21T15:08:21;-1.91;75.19
70214;DHT22;60138;55.808;37.078;2024-02-21T15:10:46;-1.92;75.16
70214;DHT22;60138;55.808;37.078;2024-02-21T15:13:12;-1.95;75.01
70214;DHT22;60138;55.808;37.078;2024-02-21T15:15:38;-1.95;75.03